Time;durP1;ratioP1;P1;durP2;ratioP2;P2;SDS_P1;SDS_P2;PMS_P1;PMS_P2;Temp;Humidity;BMP_temperature;BMP_pressure;BME280_temperature;BME280_humidity;BME280_pressure;Samples;Min_cycle;Max_cycle;Signal;HPM_P1;HPM_P2
2023/08/19 00:00:54;;;;;;;5.35;2.58;;;22.60;60.80;;;;;;5037023;28;20032;-77
2023/08/19 00:03:20;;;;;;;5.82;2.63;;;22.60;60.10;;;;;;5037139;28;20651;-76
2023/08/19 00:05:45;;;;;;;9.18;3.03;;;22.60;60.40;;;;;;5054329;28;20040;-75
2023/08/19 00:08:11;;;;;;;5.90;3.00;;;22.60;59.80;;;;;;5054541;28;20470;-75
2023/08/19 00:10:37;;;;;;;8.13;2.72;;;22.60;59.80;;;;;;5036414;28;20021;-76
2023/08/19 00:13:03;;;;;;;5.75;2.80;;;22.60;59.90;;;;;;5036581;28;20120;-77
2023/08/19 00:15:29;;;;;;;7.13;3.45;;;22.60;59.90;;;;;;5036725;28;20059;-77
2023/08/19 00:17:54;;;;;;;8.38;2.90;;;22.50;60.10;;;;;;5036502;28;20385;-76
2023/08/19 00:20:21;;;;;;;7.13;3.03;;;22.50;60.10;;;;;;5036906;28;20071;-76
2023/08/19 00:22:46;;;;;;;8.15;3.40;;;22.50;60.10;;;;;;5036417;28;20025;-76
2023/08/19 00:25:12;;;;;;;6.10;3.22;;;22.40;60.20;;;;;;5036444;28;20496;-75
2023/08/19 00:27:38;;;;;;;7.20;3.00;;;22.40;60.50;;;;;;5036570;28;20025;-75
2023/08/19 00:30:04;;;;;;;8.35;3.25;;;22.40;60.80;;;;;;5036553;28;20067;-76
2023/08/19 00:32:30;;;;;;;9.43;3.13;;;22.30;60.90;;;;;;5036465;28;20469;-76
2023/08/19 00:34:56;;;;;;;10.68;3.10;;;22.30;60.90;;;;;;5054016;28;20033;-76
2023/08/19 00:37:22;;;;;;;9.02;3.28;;;22.20;60.90;;;;;;5036112;28;20025;-77
2023/08/19 00:39:47;;;;;;;7.85;2.90;;;22.20;61.10;;;;;;5036042;28;20497;-77
2023/08/19 00:42:14;;;;;;;10.30;3.47;;;22.20;61.10;;;;;;5036005;28;20036;-76
2023/08/19 00:44:40;;;;;;;6.90;2.78;;;22.20;60.90;;;;;;5035821;28;20029;-77
2023/08/19 00:47:06;;;;;;;10.63;3.08;;;22.20;61.00;;;;;;5036232;28;20025;-77
2023/08/19 00:49:32;;;;;;;8.00;3.30;;;22.20;61.20;;;;;;5035955;28;20063;-77
2023/08/19 00:52:00;;;;;;;6.70;2.72;;;22.20;60.60;;;;;;5036048;28;20043;-77
2023/08/19 00:54:26;;;;;;;11.10;3.40;;;22.10;60.80;;;;;;5034873;28;20119;-77
2023/08/19 00:56:51;;;;;;;10.52;2.95;;;22.10;60.90;;;;;;5036020;28;20086;-77
2023/08/19 00:59:17;;;;;;;8.30;3.30;;;22.10;61.10;;;;;;5035854;28;20021;-77
2023/08/19 01:01:43;;;;;;;11.73;2.90;;;22.10;61.20;;;;;;5035970;28;20021;-79
2023/08/19 01:04:08;;;;;;;7.40;2.90;;;22.10;61.30;;;;;;5035612;28;20029;-77
2023/08/19 01:07:04;;;;;;;13.30;3.13;;;22.00;61.80;;;;;;5035494;28;20389;-78
2023/08/19 01:10:04;;;;;;;11.27;3.80;;;21.90;62.40;;;;;;5008816;28;20063;-77
2023/08/19 01:12:51;;;;;;;6.45;2.92;;;21.80;62.80;;;;;;5035396;28;20048;-77
2023/08/19 01:15:21;;;;;;;8.63;3.13;;;21.70;63.00;;;;;;5053349;28;20021;-79
2023/08/19 01:17:48;;;;;;;9.63;3.38;;;21.70;63.00;;;;;;5035461;28;20112;-80
2023/08/19 01:20:16;;;;;;;7.45;3.03;;;21.70;63.00;;;;;;5035722;28;20025;-80
2023/08/19 01:22:59;;;;;;;11.38;3.35;;;21.70;63.00;;;;;;5035095;28;20064;-83
2023/08/19 01:25:25;;;;;;;7.38;3.22;;;21.60;63.30;;;;;;5052213;28;20510;-83
2023/08/19 01:27:51;;;;;;;8.38;3.38;;;21.40;64.00;;;;;;5035361;28;20159;-82
2023/08/19 01:30:17;;;;;;;8.73;3.45;;;21.20;64.80;;;;;;5035404;28;20112;-82
2023/08/19 01:32:43;;;;;;;10.65;3.22;;;21.10;65.10;;;;;;5035474;28;20025;-82
2023/08/19 01:35:11;;;;;;;7.75;2.80;;;21.10;64.70;;;;;;5035599;28;20025;-81
2023/08/19 01:37:47;;;;;;;6.00;2.97;;;21.20;64.20;;;;;;5035398;28;20031;-81
2023/08/19 01:40:14;;;;;;;12.20;3.47;;;21.30;64.10;;;;;;5035381;28;20483;-82
2023/08/19 01:42:41;;;;;;;7.90;3.40;;;21.30;64.20;;;;;;5051270;28;20083;-82
2023/08/19 01:45:08;;;;;;;8.25;3.00;;;21.20;64.50;;;;;;5035176;28;20039;-82
2023/08/19 01:47:38;;;;;;;9.55;2.97;;;21.20;64.90;;;;;;5035308;28;20051;-83
2023/08/19 01:50:05;;;;;;;8.13;3.00;;;21.20;65.30;;;;;;5034963;28;20032;-82
2023/08/19 01:52:31;;;;;;;6.32;3.10;;;21.00;65.80;;;;;;5034273;28;20032;-82
2023/08/19 01:54:57;;;;;;;9.18;3.38;;;20.90;66.00;;;;;;5035065;28;20416;-83
2023/08/19 01:57:25;;;;;;;9.95;3.42;;;20.80;66.40;;;;;;5035132;28;20068;-82
2023/08/19 01:59:51;;;;;;;13.68;3.05;;;20.80;66.90;;;;;;5034939;28;20048;-82
2023/08/19 02:02:16;;;;;;;7.05;3.00;;;20.70;67.20;;;;;;5035055;28;20462;-83
2023/08/19 02:04:42;;;;;;;7.65;3.33;;;20.70;67.50;;;;;;5034948;28;20028;-82
2023/08/19 02:07:08;;;;;;;8.90;3.03;;;20.60;67.60;;;;;;5052527;28;20029;-82
2023/08/19 02:09:34;;;;;;;9.30;3.55;;;20.50;68.10;;;;;;5034905;28;20117;-83
2023/08/19 02:12:00;;;;;;;8.80;3.22;;;20.50;68.20;;;;;;5034818;28;20435;-82
2023/08/19 02:14:25;;;;;;;7.97;3.10;;;20.40;68.30;;;;;;5031131;28;20433;-82
2023/08/19 02:16:52;;;;;;;8.32;3.17;;;20.40;68.50;;;;;;5048287;28;20195;-81
2023/08/19 02:19:18;;;;;;;5.38;3.28;;;20.40;68.40;;;;;;5047898;28;20053;-80
2023/08/19 02:21:43;;;;;;;7.32;2.97;;;20.30;68.50;;;;;;5048204;28;20061;-80
2023/08/19 02:24:09;;;;;;;7.75;3.00;;;20.40;68.40;;;;;;5048095;28;20040;-80
2023/08/19 02:26:34;;;;;;;7.35;3.03;;;20.30;68.30;;;;;;5047869;28;20128;-80
2023/08/19 02:29:00;;;;;;;9.75;3.17;;;20.30;68.30;;;;;;5048125;28;20025;-81
2023/08/19 02:31:26;;;;;;;6.70;3.20;;;20.40;68.10;;;;;;5047982;28;20163;-80
2023/08/19 02:33:52;;;;;;;6.80;2.97;;;20.40;67.80;;;;;;5014770;28;20072;-81
2023/08/19 02:36:19;;;;;;;6.32;3.38;;;20.40;67.60;;;;;;5048108;28;20477;-81
2023/08/19 02:38:44;;;;;;;9.20;3.50;;;20.30;68.00;;;;;;5047986;28;20040;-80
2023/08/19 02:41:10;;;;;;;7.93;3.25;;;20.30;68.00;;;;;;5047967;28;20026;-80
2023/08/19 02:43:36;;;;;;;6.60;3.30;;;20.40;67.70;;;;;;5047388;28;20060;-81
2023/08/19 02:46:02;;;;;;;4.90;3.00;;;20.40;68.00;;;;;;5047635;28;20061;-81
2023/08/19 02:48:28;;;;;;;7.18;3.05;;;20.30;68.20;;;;;;5047972;28;20028;-81
2023/08/19 02:50:54;;;;;;;7.22;3.13;;;20.40;68.20;;;;;;5048016;28;20025;-81
2023/08/19 02:53:20;;;;;;;8.65;3.28;;;20.30;68.30;;;;;;4998463;28;20021;-81
2023/08/19 02:55:45;;;;;;;7.18;2.97;;;20.30;68.80;;;;;;5047470;28;20029;-80
2023/08/19 02:58:14;;;;;;;8.52;3.42;;;20.20;68.90;;;;;;5047843;28;20477;-81
2023/08/19 03:00:42;;;;;;;6.40;3.25;;;20.10;69.20;;;;;;5047971;28;20470;-80
2023/08/19 03:03:08;;;;;;;8.73;3.50;;;20.10;69.30;;;;;;5014859;28;20125;-81
2023/08/19 03:05:37;;;;;;;8.02;3.45;;;20.10;69.50;;;;;;5047639;28;20116;-82
2023/08/19 03:08:04;;;;;;;9.65;3.45;;;20.00;69.70;;;;;;5047167;28;20029;-80
2023/08/19 03:10:32;;;;;;;7.90;3.20;;;19.90;70.10;;;;;;5047600;28;20026;-80
2023/08/19 03:12:59;;;;;;;10.35;3.63;;;19.90;70.30;;;;;;5047246;28;20470;-80
2023/08/19 03:15:25;;;;;;;8.27;3.75;;;19.80;70.50;;;;;;5047659;28;20124;-80
2023/08/19 03:17:50;;;;;;;5.93;3.40;;;19.80;70.60;;;;;;5015556;28;20049;-79
2023/08/19 03:20:16;;;;;;;6.88;3.20;;;19.70;70.30;;;;;;5047475;28;20140;-79
2023/08/19 03:22:41;;;;;;;12.73;3.50;;;19.80;70.20;;;;;;5014594;28;20018;-79
2023/08/19 03:25:07;;;;;;;6.68;3.70;;;19.80;70.20;;;;;;5014253;28;20069;-80
2023/08/19 03:27:33;;;;;;;12.15;3.72;;;19.80;70.30;;;;;;5014557;28;20026;-80
2023/08/19 03:29:58;;;;;;;9.65;3.78;;;19.80;70.40;;;;;;5014687;28;20034;-80
2023/08/19 03:32:24;;;;;;;8.68;3.53;;;19.70;70.70;;;;;;5014682;28;20124;-79
2023/08/19 03:34:49;;;;;;;10.75;3.78;;;19.70;70.90;;;;;;5014340;28;20393;-79
2023/08/19 03:37:15;;;;;;;8.77;3.45;;;19.60;71.20;;;;;;5014068;28;20022;-80
2023/08/19 03:39:40;;;;;;;13.38;5.63;;;19.50;71.70;;;;;;5014664;28;20025;-80
2023/08/19 03:42:06;;;;;;;8.30;5.22;;;19.30;73.00;;;;;;5014417;28;20104;-80
2023/08/19 03:44:31;;;;;;;8.90;4.22;;;19.30;72.70;;;;;;5014382;28;20029;-81
2023/08/19 03:46:57;;;;;;;6.55;3.70;;;19.30;72.40;;;;;;5015648;28;20072;-81
2023/08/19 03:49:22;;;;;;;10.68;4.50;;;19.30;72.40;;;;;;5014430;28;20034;-80
2023/08/19 03:51:48;;;;;;;6.13;3.70;;;19.30;72.50;;;;;;5014342;28;20109;-80
2023/08/19 03:54:14;;;;;;;7.65;3.80;;;19.40;72.40;;;;;;5015250;28;20030;-80
2023/08/19 03:56:39;;;;;;;7.30;4.30;;;19.40;72.10;;;;;;5014271;28;20112;-79
2023/08/19 03:59:05;;;;;;;7.28;4.05;;;19.50;71.70;;;;;;5014365;28;20045;-80
2023/08/19 04:01:30;;;;;;;8.35;4.35;;;19.60;71.30;;;;;;5014324;28;20432;-79
2023/08/19 04:03:56;;;;;;;9.65;3.83;;;19.70;71.10;;;;;;5014054;28;20538;-79
2023/08/19 04:06:21;;;;;;;10.05;3.90;;;19.70;70.80;;;;;;5015142;28;20490;-81
2023/08/19 04:08:47;;;;;;;5.95;3.67;;;19.70;70.50;;;;;;5015001;28;20378;-81
2023/08/19 04:11:13;;;;;;;8.18;3.45;;;19.70;70.20;;;;;;5015221;28;20036;-82
2023/08/19 04:13:38;;;;;;;7.95;3.80;;;19.60;71.00;;;;;;5014674;28;20081;-82
2023/08/19 04:16:05;;;;;;;8.02;3.63;;;19.70;70.40;;;;;;5015654;28;20030;-82
2023/08/19 04:18:34;;;;;;;7.78;3.75;;;19.60;70.20;;;;;;5015558;28;20426;-82
2023/08/19 04:21:07;;;;;;;8.07;3.17;;;19.60;70.20;;;;;;5020682;28;20030;-81
2023/08/19 04:23:33;;;;;;;6.45;3.88;;;19.60;70.70;;;;;;5032174;28;20061;-82
2023/08/19 04:25:59;;;;;;;9.27;3.83;;;19.50;70.90;;;;;;5035449;28;20130;-80
2023/08/19 04:28:25;;;;;;;12.55;3.70;;;19.50;71.10;;;;;;5026590;28;20022;-82
2023/08/19 04:30:53;;;;;;;6.13;2.90;;;19.50;71.10;;;;;;5014921;28;20026;-83
2023/08/19 04:33:19;;;;;;;8.35;3.55;;;19.50;71.00;;;;;;5016260;28;20412;-82
2023/08/19 04:35:46;;;;;;;6.47;3.70;;;19.50;71.00;;;;;;5002703;28;20026;-82
2023/08/19 04:38:11;;;;;;;4.63;2.85;;;19.60;70.60;;;;;;5021297;28;20041;-83
2023/08/19 04:40:37;;;;;;;10.73;4.03;;;19.60;70.30;;;;;;5021632;28;20198;-82
2023/08/19 04:43:03;;;;;;;6.03;3.13;;;19.60;70.00;;;;;;5015899;28;20470;-81
2023/08/19 04:45:28;;;;;;;9.63;3.28;;;19.70;70.00;;;;;;4997570;28;20505;-81
2023/08/19 04:47:54;;;;;;;9.20;3.70;;;19.70;69.80;;;;;;5014684;28;20061;-81
2023/08/19 04:50:21;;;;;;;8.68;4.05;;;19.70;69.80;;;;;;5014546;28;20386;-80
2023/08/19 04:52:48;;;;;;;13.68;4.18;;;19.70;69.60;;;;;;5000684;28;20073;-82
2023/08/19 04:55:15;;;;;;;6.53;3.45;;;19.70;69.30;;;;;;5015108;28;20505;-82
2023/08/19 04:57:42;;;;;;;9.18;3.33;;;19.70;69.20;;;;;;5017363;28;20018;-83
2023/08/19 05:00:12;;;;;;;6.50;3.53;;;19.70;69.00;;;;;;5016005;28;20120;-84
2023/08/19 05:02:39;;;;;;;8.77;4.10;;;19.80;68.80;;;;;;5017720;28;20065;-88
2023/08/19 05:05:05;;;;;;;10.27;3.28;;;19.80;68.70;;;;;;5015197;28;20042;-87
2023/08/19 05:07:31;;;;;;;9.05;3.72;;;19.80;68.60;;;;;;5030360;28;20022;-88
2023/08/19 05:10:01;;;;;;;8.48;3.65;;;19.90;68.30;;;;;;5023798;28;20025;-84
2023/08/19 05:12:30;;;;;;;11.07;3.70;;;20.00;67.70;;;;;;5023950;28;20069;-83
2023/08/19 05:14:56;;;;;;;11.50;3.58;;;20.00;67.40;;;;;;5023375;28;20041;-88
2023/08/19 05:17:21;;;;;;;7.45;3.63;;;20.10;67.10;;;;;;5002129;28;20025;-85
2023/08/19 05:19:47;;;;;;;10.13;3.50;;;20.10;66.90;;;;;;5020878;28;20040;-86
2023/08/19 05:22:12;;;;;;;8.55;3.60;;;20.20;67.00;;;;;;5017080;28;20516;-84
2023/08/19 05:24:38;;;;;;;11.43;3.88;;;20.30;66.90;;;;;;5015956;28;20124;-84
2023/08/19 05:27:03;;;;;;;13.77;3.55;;;20.30;66.80;;;;;;5016570;28;20065;-83
2023/08/19 05:29:30;;;;;;;8.27;3.88;;;20.30;66.70;;;;;;5016906;28;20465;-83
2023/08/19 05:31:57;;;;;;;14.10;3.90;;;20.40;66.40;;;;;;5016944;28;20509;-83
2023/08/19 05:34:24;;;;;;;10.68;3.58;;;20.40;66.00;;;;;;5015907;28;20116;-82
2023/08/19 05:36:50;;;;;;;11.35;3.90;;;20.50;66.00;;;;;;5016097;28;20107;-82
2023/08/19 05:39:16;;;;;;;8.75;3.55;;;20.50;65.60;;;;;;5015747;28;20021;-83
2023/08/19 05:41:41;;;;;;;7.30;3.35;;;20.60;65.20;;;;;;5015450;28;20029;-83
2023/08/19 05:44:07;;;;;;;7.82;3.80;;;20.80;64.80;;;;;;5016645;28;20493;-83
2023/08/19 05:46:33;;;;;;;9.32;3.65;;;20.90;64.40;;;;;;5033741;28;20045;-83
2023/08/19 05:49:00;;;;;;;7.53;2.90;;;21.00;63.70;;;;;;5015605;28;20582;-84
2023/08/19 05:51:28;;;;;;;7.35;3.75;;;21.20;63.00;;;;;;5015681;28;20032;-83
2023/08/19 05:54:02;;;;;;;8.70;3.58;;;21.20;62.90;;;;;;5017576;28;20059;-85
2023/08/19 05:56:29;;;;;;;7.43;3.78;;;21.30;63.00;;;;;;5017148;28;20168;-83
2023/08/19 05:58:55;;;;;;;10.07;3.60;;;21.30;62.40;;;;;;5018226;28;20359;-85
2023/08/19 06:01:21;;;;;;;10.30;3.55;;;21.40;62.10;;;;;;5037770;28;20041;-88
2023/08/19 06:03:47;;;;;;;7.68;3.45;;;21.50;62.00;;;;;;5024015;28;20021;-83
2023/08/19 06:06:13;;;;;;;5.57;3.28;;;21.60;61.70;;;;;;5025164;28;20025;-84
2023/08/19 06:08:38;;;;;;;12.18;3.45;;;21.70;61.30;;;;;;5022667;28;20068;-83
2023/08/19 06:11:06;;;;;;;10.52;3.90;;;21.80;60.70;;;;;;5018551;28;20124;-83
2023/08/19 06:13:34;;;;;;;10.68;3.65;;;21.90;60.70;;;;;;5008688;28;20085;-79
2023/08/19 06:16:01;;;;;;;13.80;3.90;;;22.00;60.70;;;;;;4992366;28;20399;-79
2023/08/19 06:18:28;;;;;;;7.05;3.15;;;22.00;60.50;;;;;;4992343;28;20026;-80
2023/08/19 06:20:55;;;;;;;9.68;3.60;;;22.00;60.30;;;;;;4992433;28;20038;-80
2023/08/19 06:23:21;;;;;;;8.43;3.83;;;22.20;60.20;;;;;;4992387;28;20031;-79
2023/08/19 06:25:49;;;;;;;7.07;3.58;;;22.30;59.40;;;;;;4992224;28;20030;-79
2023/08/19 06:28:15;;;;;;;13.93;3.95;;;22.40;58.50;;;;;;4992328;28;20022;-78
2023/08/19 06:30:41;;;;;;;8.57;3.30;;;22.60;58.20;;;;;;4992244;28;20022;-79
2023/08/19 06:33:18;;;;;;;8.13;3.60;;;22.80;57.80;;;;;;4991982;28;20428;-79
2023/08/19 06:35:49;;;;;;;8.80;3.55;;;22.90;57.90;;;;;;4992201;28;20498;-79
2023/08/19 06:38:30;;;;;;;10.90;3.70;;;23.10;57.70;;;;;;4992264;28;20026;-79
2023/08/19 06:41:10;;;;;;;10.80;3.88;;;23.20;57.60;;;;;;4992436;28;20121;-79
2023/08/19 06:43:39;;;;;;;9.90;3.40;;;23.20;57.70;;;;;;4992542;28;20022;-80
2023/08/19 06:46:07;;;;;;;7.53;3.28;;;23.40;57.60;;;;;;4991520;28;20133;-79
2023/08/19 06:48:34;;;;;;;9.52;3.83;;;23.40;57.50;;;;;;4992482;28;20030;-80
2023/08/19 06:51:01;;;;;;;11.35;3.90;;;23.50;57.60;;;;;;4991799;28;20043;-80
2023/08/19 06:53:26;;;;;;;6.35;3.55;;;23.60;57.60;;;;;;4993680;28;20023;-80
2023/08/19 06:56:37;;;;;;;11.95;3.75;;;23.70;57.60;;;;;;4995752;28;20041;-80
2023/08/19 06:59:08;;;;;;;6.57;3.58;;;23.80;57.70;;;;;;4963199;28;20093;-80
2023/08/19 07:01:37;;;;;;;8.90;3.22;;;24.00;57.40;;;;;;4997366;28;20483;-86
2023/08/19 07:04:03;;;;;;;5.28;2.70;;;24.10;57.10;;;;;;4996396;28;20026;-80
2023/08/19 07:06:31;;;;;;;7.45;3.30;;;24.20;56.70;;;;;;4995412;28;20062;-75
2023/08/19 07:08:58;;;;;;;8.90;3.47;;;24.40;56.50;;;;;;4995690;28;20018;-75
2023/08/19 07:11:24;;;;;;;9.60;3.75;;;24.50;56.30;;;;;;4995065;28;20034;-75
2023/08/19 07:13:50;;;;;;;10.15;3.20;;;24.60;55.80;;;;;;5009801;28;20046;-84
2023/08/19 07:16:18;;;;;;;8.95;3.35;;;24.70;55.40;;;;;;5015492;28;20386;-85
2023/08/19 07:18:47;;;;;;;9.23;3.25;;;24.80;55.20;;;;;;5016466;28;20034;-80
2023/08/19 07:21:15;;;;;;;9.00;3.55;;;24.90;55.20;;;;;;5017547;28;20030;-78
2023/08/19 07:23:44;;;;;;;7.30;3.55;;;25.00;55.00;;;;;;5018766;28;20390;-78
2023/08/19 07:26:10;;;;;;;10.32;3.40;;;25.10;54.20;;;;;;5014465;28;20037;-77
2023/08/19 07:28:37;;;;;;;6.03;3.30;;;25.20;53.90;;;;;;5014376;28;20029;-78
2023/08/19 07:31:04;;;;;;;7.10;3.30;;;25.40;54.00;;;;;;5014710;28;20079;-80
2023/08/19 07:33:30;;;;;;;9.65;3.28;;;25.60;53.20;;;;;;5014409;28;20068;-82
2023/08/19 07:35:55;;;;;;;11.90;3.40;;;25.70;52.30;;;;;;5014466;28;20026;-77
2023/08/19 07:38:21;;;;;;;8.13;4.25;;;25.90;52.20;;;;;;5014488;28;20022;-78
2023/08/19 07:40:48;;;;;;;10.77;3.63;;;26.10;52.60;;;;;;5014443;28;20084;-81
2023/08/19 07:43:14;;;;;;;13.70;4.00;;;26.20;51.30;;;;;;5014830;28;20057;-80
2023/08/19 07:45:40;;;;;;;7.25;3.10;;;26.40;50.40;;;;;;5014429;28;20061;-77
2023/08/19 07:48:06;;;;;;;12.38;3.40;;;26.50;50.30;;;;;;5014715;28;20144;-80
2023/08/19 07:50:34;;;;;;;10.13;3.13;;;26.70;50.30;;;;;;5014542;28;20022;-82
2023/08/19 07:52:59;;;;;;;10.88;3.60;;;26.80;49.70;;;;;;5014742;28;20026;-83
2023/08/19 07:55:25;;;;;;;5.38;2.95;;;27.00;50.00;;;;;;5014590;28;20026;-83
2023/08/19 07:57:50;;;;;;;11.40;3.13;;;27.10;49.60;;;;;;5014501;28;20419;-82
2023/08/19 08:00:16;;;;;;;12.07;3.42;;;27.30;49.90;;;;;;5013808;28;20026;-82
2023/08/19 08:02:42;;;;;;;7.18;2.97;;;27.30;48.70;;;;;;5014463;28;20121;-81
2023/08/19 08:05:07;;;;;;;6.72;3.35;;;27.50;48.10;;;;;;5013698;28;20072;-82
2023/08/19 08:07:33;;;;;;;4.60;2.63;;;27.50;48.30;;;;;;5014000;28;20382;-82
2023/08/19 08:09:59;;;;;;;6.05;3.28;;;27.70;47.30;;;;;;5013786;28;20030;-82
2023/08/19 08:12:24;;;;;;;6.75;3.33;;;27.80;47.50;;;;;;5000472;28;20041;-81
2023/08/19 08:14:50;;;;;;;8.40;3.25;;;28.00;48.40;;;;;;5017207;28;20429;-81
2023/08/19 08:17:15;;;;;;;6.57;2.97;;;28.00;47.60;;;;;;5017212;28;20032;-82
2023/08/19 08:19:41;;;;;;;7.05;2.97;;;28.10;48.10;;;;;;5017057;28;20107;-81
2023/08/19 08:22:07;;;;;;;7.00;3.75;;;28.30;47.70;;;;;;5016844;28;20467;-81
2023/08/19 08:24:33;;;;;;;7.53;3.38;;;28.30;46.70;;;;;;5016864;28;20033;-82
2023/08/19 08:26:59;;;;;;;5.60;2.50;;;28.40;46.00;;;;;;5016876;28;20034;-82
2023/08/19 08:29:24;;;;;;;6.47;3.00;;;28.50;45.80;;;;;;5016938;28;20025;-82
2023/08/19 08:31:50;;;;;;;11.95;3.38;;;28.50;43.70;;;;;;5016648;28;20423;-81
2023/08/19 08:34:16;;;;;;;8.60;3.28;;;28.60;43.10;;;;;;5034377;28;20064;-82
2023/08/19 08:36:42;;;;;;;4.45;3.13;;;28.60;42.80;;;;;;5016452;28;20022;-81
2023/08/19 08:39:09;;;;;;;10.70;3.38;;;28.70;42.60;;;;;;5016809;28;20431;-84
2023/08/19 08:41:39;;;;;;;7.35;3.60;;;28.80;42.00;;;;;;5017761;28;20025;-84
2023/08/19 08:44:06;;;;;;;9.02;3.50;;;28.90;41.70;;;;;;5021668;28;20022;-80
2023/08/19 08:46:34;;;;;;;6.43;2.80;;;28.90;42.20;;;;;;5030047;28;20033;-80
2023/08/19 08:49:01;;;;;;;5.53;2.75;;;29.10;43.30;;;;;;5024731;28;20116;-81
2023/08/19 08:51:27;;;;;;;8.77;3.15;;;29.20;42.90;;;;;;5017036;28;20079;-83
2023/08/19 08:53:56;;;;;;;6.63;2.85;;;29.30;42.20;;;;;;5017314;28;20021;-82
2023/08/19 08:56:23;;;;;;;8.30;3.53;;;29.40;42.50;;;;;;5017576;28;20033;-83
2023/08/19 08:58:49;;;;;;;8.07;3.08;;;29.40;39.60;;;;;;5017202;28;20488;-86
2023/08/19 09:01:17;;;;;;;9.02;2.90;;;29.50;39.30;;;;;;5017535;28;20025;-88
2023/08/19 09:03:45;;;;;;;6.72;2.85;;;29.60;39.00;;;;;;5017908;28;20041;-85
2023/08/19 09:06:16;;;;;;;6.68;3.13;;;29.70;37.90;;;;;;5017959;28;20033;-85
2023/08/19 09:09:01;;;;;;;3.83;2.53;;;29.80;38.00;;;;;;5013305;28;20030;-88
2023/08/19 09:11:29;;;;;;;4.25;2.75;;;29.80;36.80;;;;;;5017235;28;20477;-82
2023/08/19 09:14:22;;;;;;;6.60;2.80;;;29.90;36.10;;;;;;5021947;28;20053;-81
2023/08/19 09:16:49;;;;;;;8.85;3.42;;;29.90;36.00;;;;;;5025248;28;20022;-85
2023/08/19 09:19:15;;;;;;;6.43;3.15;;;29.90;35.30;;;;;;5021441;28;20024;-86
2023/08/19 09:21:41;;;;;;;5.57;2.90;;;30.00;36.90;;;;;;5027808;28;20025;-86
2023/08/19 09:24:07;;;;;;;4.32;2.50;;;30.10;34.30;;;;;;5043794;28;20021;-80
2023/08/19 09:26:35;;;;;;;3.63;2.35;;;30.10;34.20;;;;;;5045393;28;20379;-85
2023/08/19 09:29:01;;;;;;;8.45;3.47;;;30.30;34.70;;;;;;5035653;28;20048;-86
2023/08/19 09:31:27;;;;;;;9.45;3.40;;;30.40;36.30;;;;;;5029655;28;20449;-86
2023/08/19 09:33:52;;;;;;;8.27;3.00;;;30.60;36.20;;;;;;5019983;28;20021;-87
2023/08/19 09:36:23;;;;;;;5.03;2.95;;;30.70;36.50;;;;;;5030203;28;20382;-87
2023/08/19 09:38:55;;;;;;;6.22;3.10;;;30.80;36.00;;;;;;5024724;28;20060;-87
2023/08/19 09:41:26;;;;;;;5.28;3.17;;;30.90;33.90;;;;;;5008375;28;20099;-85
2023/08/19 09:43:51;;;;;;;7.70;2.95;;;31.00;34.60;;;;;;5024059;28;20077;-82
2023/08/19 09:46:18;;;;;;;5.88;2.88;;;31.10;33.00;;;;;;5006068;28;20068;-83
2023/08/19 09:48:54;;;;;;;5.38;2.60;;;31.20;33.30;;;;;;5015909;28;20055;-85
2023/08/19 09:51:28;;;;;;;5.88;2.80;;;31.30;32.60;;;;;;5015292;28;20393;-79
2023/08/19 09:53:57;;;;;;;8.57;3.10;;;31.30;31.40;;;;;;5019067;28;20029;-87
2023/08/19 09:56:26;;;;;;;6.45;2.75;;;31.40;31.90;;;;;;5015754;28;20056;-81
2023/08/19 09:58:53;;;;;;;5.93;2.75;;;31.40;31.70;;;;;;5015725;28;20028;-84
2023/08/19 10:01:22;;;;;;;6.68;2.97;;;31.60;31.80;;;;;;5015369;28;20506;-78
2023/08/19 10:03:49;;;;;;;9.55;2.70;;;31.60;30.00;;;;;;5015095;28;20437;-79
2023/08/19 10:06:20;;;;;;;6.68;2.97;;;31.70;30.40;;;;;;5015605;28;20371;-74
2023/08/19 10:08:50;;;;;;;8.15;3.22;;;31.90;30.40;;;;;;5034565;28;20026;-78
2023/08/19 10:11:17;;;;;;;7.75;2.78;;;32.10;30.40;;;;;;5021000;28;20033;-73
2023/08/19 10:13:45;;;;;;;6.95;2.83;;;32.20;31.10;;;;;;5019815;28;20098;-78
2023/08/19 10:16:13;;;;;;;5.47;2.33;;;32.30;27.40;;;;;;5025336;28;20018;-78
2023/08/19 10:18:44;;;;;;;8.18;2.88;;;32.30;28.10;;;;;;5019850;28;20112;-79
2023/08/19 10:21:13;;;;;;;9.38;2.90;;;32.40;27.40;;;;;;5014809;28;20026;-74
2023/08/19 10:23:41;;;;;;;5.78;2.55;;;32.50;28.30;;;;;;5014560;28;20026;-76
2023/08/19 10:26:07;;;;;;;7.45;2.40;;;32.60;25.20;;;;;;5014857;28;20128;-75
2023/08/19 10:28:33;;;;;;;6.47;2.47;;;32.70;24.10;;;;;;5018558;28;20468;-74
2023/08/19 10:31:08;;;;;;;3.78;2.47;;;32.90;24.30;;;;;;5018473;28;20074;-74
2023/08/19 10:33:42;;;;;;;5.90;3.15;;;33.10;26.30;;;;;;5018533;28;20018;-74
2023/08/19 10:36:09;;;;;;;11.02;7.63;;;33.30;26.60;;;;;;5018929;28;20021;-77
2023/08/19 10:38:48;;;;;;;7.15;3.05;;;33.50;27.50;;;;;;5036365;28;20025;-75
2023/08/19 10:41:28;;;;;;;6.03;2.60;;;33.50;24.50;;;;;;5036160;28;20029;-75
2023/08/19 10:44:06;;;;;;;4.13;2.20;;;33.40;24.40;;;;;;5018527;28;20032;-74
2023/08/19 10:46:33;;;;;;;6.38;2.70;;;33.50;25.50;;;;;;5018534;28;20025;-74
2023/08/19 10:49:00;;;;;;;5.90;2.47;;;33.60;23.50;;;;;;5018486;28;20454;-75
2023/08/19 10:51:50;;;;;;;11.60;2.95;;;33.70;22.30;;;;;;5017788;28;20079;-74
2023/08/19 10:54:26;;;;;;;6.15;2.45;;;33.90;22.40;;;;;;5018261;28;20028;-75
2023/08/19 10:57:14;;;;;;;7.95;3.03;;;34.10;23.30;;;;;;5018172;28;20535;-74
2023/08/19 10:59:45;;;;;;;12.07;2.90;;;34.20;24.40;;;;;;5027262;28;20432;-74
2023/08/19 11:02:13;;;;;;;6.50;2.70;;;34.30;24.20;;;;;;5037000;28;20029;-74
2023/08/19 11:04:42;;;;;;;5.88;2.03;;;34.50;23.80;;;;;;5037797;28;20529;-75
2023/08/19 11:07:08;;;;;;;11.32;3.20;;;34.80;23.10;;;;;;5038295;28;20028;-75
2023/08/19 11:09:35;;;;;;;8.57;3.03;;;34.80;21.00;;;;;;5038008;28;20078;-75
2023/08/19 11:12:02;;;;;;;3.75;2.20;;;35.00;20.80;;;;;;5021641;28;20053;-75
2023/08/19 11:14:28;;;;;;;11.48;2.95;;;35.30;21.40;;;;;;5037824;28;20397;-75
2023/08/19 11:16:55;;;;;;;9.35;2.95;;;35.50;21.00;;;;;;5038232;28;20021;-75
2023/08/19 11:19:22;;;;;;;5.78;2.20;;;35.40;19.30;;;;;;5055405;28;20025;-75
2023/08/19 11:21:48;;;;;;;6.13;2.53;;;35.30;19.60;;;;;;5038114;28;20138;-75
2023/08/19 11:24:13;;;;;;;5.53;2.50;;;35.50;20.00;;;;;;5037916;28;20145;-75
2023/08/19 11:26:44;;;;;;;7.38;2.33;;;35.60;19.70;;;;;;5037997;28;20043;-75
2023/08/19 11:29:11;;;;;;;7.38;2.40;;;35.90;20.20;;;;;;5055767;28;20060;-74
2023/08/19 11:31:38;;;;;;;4.65;2.40;;;36.00;19.30;;;;;;5037945;28;20074;-75
2023/08/19 11:34:13;;;;;;;6.25;2.13;;;36.10;19.80;;;;;;5043918;28;20021;-79
2023/08/19 11:36:44;;;;;;;5.30;2.35;;;36.20;19.30;;;;;;5055844;28;20508;-76
2023/08/19 11:39:10;;;;;;;6.35;2.75;;;36.30;19.80;;;;;;5036905;28;20032;-75
2023/08/19 11:41:36;;;;;;;5.65;2.38;;;36.40;19.50;;;;;;5031401;28;20045;-75
2023/08/19 11:44:03;;;;;;;6.32;2.47;;;36.60;20.50;;;;;;5017416;28;20469;-75
2023/08/19 11:46:29;;;;;;;10.38;2.85;;;36.70;18.60;;;;;;5017535;28;20044;-75
2023/08/19 11:48:57;;;;;;;7.13;2.75;;;36.70;19.40;;;;;;5017119;28;20022;-76
2023/08/19 11:51:25;;;;;;;5.38;2.70;;;36.50;19.50;;;;;;5016905;28;20040;-75
2023/08/19 11:53:53;;;;;;;8.02;2.67;;;36.50;18.60;;;;;;5016931;28;20025;-75
2023/08/19 11:56:20;;;;;;;4.53;2.75;;;36.50;19.80;;;;;;5017109;28;20025;-75
2023/08/19 11:58:51;;;;;;;7.97;2.58;;;36.40;18.50;;;;;;5017617;28;20036;-74
2023/08/19 12:01:21;;;;;;;7.43;2.45;;;36.60;18.60;;;;;;5030924;28;20021;-74
2023/08/19 12:03:50;;;;;;;8.13;2.92;;;36.70;18.00;;;;;;5017204;28;20462;-75
2023/08/19 12:06:17;;;;;;;8.82;3.10;;;36.90;18.40;;;;;;5017212;28;20363;-75
2023/08/19 12:08:44;;;;;;;9.38;3.05;;;36.70;17.70;;;;;;5024717;28;20033;-76
2023/08/19 12:11:11;;;;;;;10.30;3.08;;;36.40;17.90;;;;;;5016724;28;20025;-77
2023/08/19 12:13:37;;;;;;;12.02;2.88;;;36.50;18.10;;;;;;5016684;28;20557;-75
2023/08/19 12:16:04;;;;;;;6.82;3.08;;;36.40;19.30;;;;;;5016862;28;20457;-75
2023/08/19 12:18:34;;;;;;;12.50;3.78;;;36.60;18.40;;;;;;5034735;28;20543;-75
2023/08/19 12:21:03;;;;;;;10.20;3.58;;;36.90;18.80;;;;;;5018210;28;20546;-79
2023/08/19 12:23:29;;;;;;;8.73;2.50;;;37.20;19.90;;;;;;5019741;28;20036;-76
2023/08/19 12:25:59;;;;;;;8.32;3.30;;;37.50;18.20;;;;;;5036480;28;20049;-75
2023/08/19 12:28:28;;;;;;;7.30;3.50;;;37.70;18.70;;;;;;5054514;28;20029;-76
2023/08/19 12:30:54;;;;;;;6.30;2.70;;;37.80;18.10;;;;;;5036445;28;20473;-76
2023/08/19 12:33:20;;;;;;;7.63;2.95;;;38.00;17.90;;;;;;5036281;28;20022;-76
2023/08/19 12:35:48;;;;;;;6.53;2.95;;;38.30;17.70;;;;;;5035929;28;20028;-76
2023/08/19 12:38:16;;;;;;;12.73;2.97;;;38.40;17.70;;;;;;5054415;28;20346;-76
2023/08/19 12:40:42;;;;;;;5.55;3.08;;;38.10;17.00;;;;;;5036362;28;20056;-75
2023/08/19 12:43:09;;;;;;;8.38;3.03;;;38.30;16.90;;;;;;5036302;28;20124;-77
2023/08/19 12:45:35;;;;;;;7.00;2.95;;;38.60;18.00;;;;;;5036199;28;20123;-76
2023/08/19 12:48:00;;;;;;;9.75;3.03;;;38.70;16.70;;;;;;5053532;28;20443;-75